Time;durP1;ratioP1;P1;durP2;ratioP2;P2;SDS_P1;SDS_P2;PMS_P1;PMS_P2;Temp;Humidity;BMP_temperature;BMP_pressure;BME280_temperature;BME280_humidity;BME280_pressure;Samples;Min_cycle;Max_cycle;Signal;HPM_P1;HPM_P2
2021/01/15 00:01:00;;;;;;;0.20;0.20;;;7.90;99.90;;;;;;4182203;28;20132;-88
2021/01/15 00:03:03;;;;;;;0.17;0.17;;;7.90;99.90;;;;;;4169410;28;20077;-88
2021/01/15 00:05:04;;;;;;;0.10;0.10;;;8.00;99.90;;;;;;4168826;28;20053;-89
2021/01/15 00:07:06;;;;;;;0.20;0.20;;;8.10;99.90;;;;;;4196843;28;20135;-90
2021/01/15 00:09:08;;;;;;;0.10;0.10;;;8.00;99.90;;;;;;4181454;28;20473;-89
2021/01/15 00:11:19;;;;;;;0.20;0.20;;;8.00;99.90;;;;;;4181885;28;20057;-88
2021/01/15 00:13:20;;;;;;;0.10;0.10;;;8.00;99.90;;;;;;4166727;28;20052;-89
2021/01/15 00:15:21;;;;;;;0.10;0.10;;;8.00;99.90;;;;;;4189331;28;20052;-88
2021/01/15 00:17:23;;;;;;;0.20;0.20;;;8.00;99.90;;;;;;4174104;28;20036;-88
2021/01/15 00:19:24;;;;;;;0.20;0.20;;;8.10;99.90;;;;;;4182689;28;20057;-88
2021/01/15 00:21:29;;;;;;;0.15;0.15;;;8.10;99.90;;;;;;4196191;28;20389;-88
2021/01/15 00:23:31;;;;;;;;;;;8.00;99.90;;;;;;4179460;28;20059;-88
2021/01/15 00:25:32;;;;;;;0.20;0.20;;;8.00;99.90;;;;;;4184355;28;19920;-89
2021/01/15 00:27:36;;;;;;;0.20;0.20;;;8.10;99.90;;;;;;4181689;28;20049;-88
2021/01/15 00:29:38;;;;;;;0.20;0.20;;;8.00;99.90;;;;;;4171465;28;20521;-88
2021/01/15 00:31:40;;;;;;;0.30;0.30;;;8.00;99.90;;;;;;4181661;28;20049;-88
2021/01/15 00:33:41;;;;;;;0.20;0.20;;;8.00;99.90;;;;;;4170018;28;20046;-88
2021/01/15 00:35:43;;;;;;;0.20;0.20;;;8.00;99.90;;;;;;4168592;28;20049;-88
2021/01/15 00:37:44;;;;;;;0.20;0.20;;;8.00;99.90;;;;;;4180771;28;20049;-88
2021/01/15 00:39:45;;;;;;;0.20;0.20;;;8.00;99.90;;;;;;4181198;28;20445;-89
2021/01/15 00:41:46;;;;;;;0.68;0.68;;;8.00;99.90;;;;;;4189450;28;20519;-89
2021/01/15 00:43:48;;;;;;;0.22;0.22;;;8.00;99.90;;;;;;4166766;28;20535;-89
2021/01/15 00:45:49;;;;;;;0.20;0.20;;;8.10;99.90;;;;;;4193957;28;20471;-88
2021/01/15 00:47:50;;;;;;;0.30;0.30;;;8.10;99.90;;;;;;4187648;28;20052;-90
2021/01/15 00:49:52;;;;;;;0.20;0.20;;;8.10;99.90;;;;;;4170062;28;20048;-89
2021/01/15 00:51:54;;;;;;;0.20;0.20;;;8.10;99.90;;;;;;4181236;28;20045;-89
2021/01/15 00:53:55;;;;;;;0.40;0.20;;;8.10;99.90;;;;;;4170709;28;20057;-90
2021/01/15 00:55:56;;;;;;;0.30;0.15;;;8.00;99.90;;;;;;4180939;28;20484;-89
2021/01/15 00:57:58;;;;;;;0.10;0.10;;;8.00;99.90;;;;;;4197811;28;20489;-88
2021/01/15 00:59:59;;;;;;;0.30;0.30;;;8.00;99.90;;;;;;4176436;28;20104;-88
2021/01/15 01:02:01;;;;;;;0.20;0.20;;;8.00;99.90;;;;;;4193364;28;20041;-89
2021/01/15 01:04:06;;;;;;;0.20;0.20;;;8.00;99.90;;;;;;4198097;28;20052;-89
2021/01/15 01:06:15;;;;;;;0.20;0.20;;;8.00;99.90;;;;;;4180806;28;20056;-89
2021/01/15 01:08:16;;;;;;;0.10;0.10;;;8.00;99.90;;;;;;4172611;28;20535;-87
2021/01/15 01:10:18;;;;;;;0.10;0.10;;;8.00;99.90;;;;;;4164887;28;20143;-89
2021/01/15 01:12:19;;;;;;;0.20;0.20;;;8.00;99.90;;;;;;4180639;28;20064;-88
2021/01/15 01:14:20;;;;;;;0.20;0.20;;;8.00;99.90;;;;;;4172749;28;20049;-88
2021/01/15 01:16:22;;;;;;;0.20;0.20;;;7.90;99.90;;;;;;4165460;28;20175;-89
2021/01/15 01:18:24;;;;;;;0.20;0.20;;;7.90;99.90;;;;;;4187062;28;20045;-88
2021/01/15 01:20:25;;;;;;;0.35;0.35;;;7.90;99.90;;;;;;4173719;28;20052;-88
2021/01/15 01:22:26;;;;;;;0.43;0.43;;;7.90;99.90;;;;;;4165571;28;20042;-89
2021/01/15 01:24:27;;;;;;;0.10;0.10;;;7.90;99.90;;;;;;4194602;28;20049;-89
2021/01/15 01:26:29;;;;;;;0.32;0.32;;;8.00;99.90;;;;;;4188778;28;20040;-89
2021/01/15 01:28:30;;;;;;;0.20;0.20;;;8.00;99.90;;;;;;4181826;28;20063;-88
2021/01/15 01:30:31;;;;;;;0.22;0.22;;;8.00;99.90;;;;;;4195479;28;20071;-89
2021/01/15 01:32:32;;;;;;;0.20;0.20;;;8.00;99.90;;;;;;4205742;28;20055;-88
2021/01/15 01:34:34;;;;;;;0.20;0.20;;;7.90;99.90;;;;;;4165834;28;20091;-86
2021/01/15 01:36:35;;;;;;;0.10;0.10;;;8.00;99.90;;;;;;4183758;28;20517;-89
2021/01/15 01:38:37;;;;;;;0.13;0.13;;;8.00;99.90;;;;;;4175046;28;20059;-89
2021/01/15 01:40:39;;;;;;;0.20;0.20;;;8.00;99.90;;;;;;4167548;28;20075;-88
2021/01/15 01:42:40;;;;;;;0.28;0.28;;;8.00;99.90;;;;;;4180322;28;20049;-88
2021/01/15 01:44:41;;;;;;;0.20;0.20;;;8.00;99.90;;;;;;4179955;28;20052;-88
2021/01/15 01:46:43;;;;;;;0.28;0.22;;;8.00;99.90;;;;;;4195006;28;20043;-88
2021/01/15 01:48:44;;;;;;;0.20;0.20;;;8.00;99.90;;;;;;4175913;28;20560;-88
2021/01/15 01:50:48;;;;;;;0.17;0.17;;;8.00;99.90;;;;;;4195979;28;20049;-89
2021/01/15 01:52:50;;;;;;;0.10;0.10;;;8.00;99.90;;;;;;4168566;28;20045;-88
2021/01/15 01:54:51;;;;;;;1.38;0.30;;;8.00;99.90;;;;;;4176914;28;20136;-88
2021/01/15 01:56:52;;;;;;;0.20;0.20;;;8.00;99.90;;;;;;4191760;28;20048;-88
2021/01/15 01:58:54;;;;;;;0.10;0.10;;;7.90;99.90;;;;;;4166304;28;20049;-89
2021/01/15 02:00:59;;;;;;;0.10;0.10;;;8.00;99.90;;;;;;4177311;28;20053;-89
2021/01/15 02:03:02;;;;;;;0.20;0.20;;;8.00;99.90;;;;;;4180142;28;20501;-88
2021/01/15 02:05:04;;;;;;;0.20;0.20;;;8.00;99.90;;;;;;4183887;28;20053;-87
2021/01/15 02:07:06;;;;;;;0.20;0.20;;;8.00;99.90;;;;;;4180507;28;20045;-88
2021/01/15 02:09:08;;;;;;;0.10;0.10;;;8.00;99.90;;;;;;4179788;28;20055;-89
2021/01/15 02:11:11;;;;;;;0.10;0.10;;;8.00;99.90;;;;;;4195062;28;20094;-88
2021/01/15 02:13:24;;;;;;;0.20;0.20;;;8.00;99.90;;;;;;4197257;28;20052;-88
2021/01/15 02:15:40;;;;;;;0.10;0.10;;;8.00;99.90;;;;;;4197446;28;20529;-88
2021/01/15 02:17:53;;;;;;;0.17;0.17;;;8.00;99.90;;;;;;4187915;28;20525;-88
2021/01/15 02:20:01;;;;;;;0.10;0.10;;;8.00;99.90;;;;;;4195268;28;20083;-90
2021/01/15 02:22:27;;;;;;;0.10;0.10;;;8.00;99.90;;;;;;4212077;28;20479;-88
2021/01/15 02:24:34;;;;;;;0.20;0.20;;;8.10;99.90;;;;;;4206976;28;20144;-88
2021/01/15 02:27:14;;;;;;;0.10;0.10;;;8.00;99.90;;;;;;4213005;28;20513;-88
2021/01/15 02:29:17;;;;;;;0.20;0.20;;;8.00;99.90;;;;;;4193971;28;20057;-88
2021/01/15 02:31:21;;;;;;;0.10;0.10;;;8.00;99.90;;;;;;4180653;28;20053;-87
2021/01/15 02:33:48;;;;;;;0.20;0.20;;;8.00;99.90;;;;;;4208542;28;20099;-87
2021/01/15 02:36:05;;;;;;;0.20;0.20;;;8.00;99.90;;;;;;4191323;28;20049;-89
2021/01/15 02:38:28;;;;;;;0.10;0.10;;;7.90;99.90;;;;;;4171607;28;20083;-89
2021/01/15 02:40:49;;;;;;;0.10;0.10;;;8.00;99.90;;;;;;4181528;28;20521;-88
2021/01/15 02:42:51;;;;;;;0.10;0.10;;;8.00;99.90;;;;;;4193281;28;20052;-88
2021/01/15 02:44:54;;;;;;;0.10;0.10;;;8.00;99.90;;;;;;4180952;28;20599;-88
2021/01/15 02:46:57;;;;;;;0.20;0.10;;;8.00;99.90;;;;;;4197164;28;20048;-88
2021/01/15 02:48:59;;;;;;;0.17;0.17;;;8.00;99.90;;;;;;4196854;28;20108;-88
2021/01/15 02:51:00;;;;;;;0.10;0.10;;;8.00;99.90;;;;;;4193164;28;20044;-88
2021/01/15 02:53:02;;;;;;;0.10;0.10;;;8.00;99.90;;;;;;4179514;28;20049;-89
2021/01/15 02:55:04;;;;;;;0.47;0.32;;;8.00;99.90;;;;;;4196307;28;20532;-88
2021/01/15 02:57:05;;;;;;;0.10;0.10;;;8.00;99.90;;;;;;4171400;28;20061;-87
2021/01/15 02:59:07;;;;;;;0.10;0.10;;;8.00;99.90;;;;;;4170854;28;20068;-89
2021/01/15 03:01:09;;;;;;;0.10;0.10;;;8.10;99.90;;;;;;4183131;28;20464;-89
2021/01/15 03:03:17;;;;;;;0.10;0.10;;;8.10;99.90;;;;;;4187434;28;20045;-88
2021/01/15 03:05:22;;;;;;;0.20;0.20;;;8.00;99.90;;;;;;4200353;28;20052;-87
2021/01/15 03:07:24;;;;;;;;;;;8.00;99.90;;;;;;4197782;28;20588;-89
2021/01/15 03:09:26;;;;;;;0.40;0.40;;;8.00;99.90;;;;;;4187921;28;19925;-89
2021/01/15 03:11:27;;;;;;;0.20;0.20;;;8.00;99.90;;;;;;4175974;28;20053;-91
2021/01/15 03:13:32;;;;;;;0.20;0.20;;;8.00;99.90;;;;;;4182827;28;20049;-89
2021/01/15 03:15:34;;;;;;;0.20;0.20;;;8.00;99.90;;;;;;4187230;28;20544;-89
2021/01/15 03:17:40;;;;;;;0.20;0.20;;;8.00;99.90;;;;;;4190893;28;20067;-89
2021/01/15 03:19:43;;;;;;;0.20;0.20;;;8.00;99.90;;;;;;4169701;28;20052;-88
2021/01/15 03:21:44;;;;;;;0.10;0.10;;;8.00;99.90;;;;;;4187438;28;20045;-88
2021/01/15 03:23:45;;;;;;;0.10;0.10;;;8.00;99.90;;;;;;4176766;28;20116;-90
2021/01/15 03:25:47;;;;;;;0.10;0.10;;;8.00;99.90;;;;;;4194533;28;20048;-88
2021/01/15 03:27:52;;;;;;;0.10;0.10;;;8.00;99.90;;;;;;4199458;28;20045;-87
2021/01/15 03:29:54;;;;;;;0.20;0.20;;;7.90;99.90;;;;;;4188302;28;20493;-89
2021/01/15 03:31:55;;;;;;;0.10;0.10;;;8.00;99.90;;;;;;4182072;28;20053;-88
2021/01/15 03:33:56;;;;;;;0.10;0.10;;;8.00;99.90;;;;;;4168911;28;20053;-88
2021/01/15 03:35:58;;;;;;;0.20;0.10;;;7.90;99.90;;;;;;4179137;28;20569;-88
2021/01/15 03:38:03;;;;;;;0.10;0.10;;;8.00;99.90;;;;;;4185672;28;20048;-88
2021/01/15 03:40:04;;;;;;;0.20;0.20;;;8.00;99.90;;;;;;4197560;28;20639;-88
2021/01/15 03:42:06;;;;;;;0.10;0.10;;;8.00;99.90;;;;;;4185703;28;20528;-88
2021/01/15 03:44:07;;;;;;;0.20;0.20;;;8.00;99.90;;;;;;4169615;28;20468;-89
2021/01/15 03:46:08;;;;;;;0.10;0.10;;;8.00;99.90;;;;;;4197927;28;20044;-88
2021/01/15 03:48:10;;;;;;;0.20;0.20;;;8.00;99.90;;;;;;4192504;28;20052;-88
2021/01/15 03:50:12;;;;;;;0.20;0.20;;;8.00;99.90;;;;;;4173282;28;20041;-88
2021/01/15 03:52:13;;;;;;;0.43;0.40;;;8.00;99.90;;;;;;4182218;28;20041;-88
2021/01/15 03:54:15;;;;;;;0.20;0.20;;;8.00;99.90;;;;;;4183942;28;20315;-88
2021/01/15 03:56:17;;;;;;;0.20;0.20;;;8.00;99.90;;;;;;4192603;28;20056;-89
2021/01/15 03:58:18;;;;;;;0.17;0.17;;;7.90;99.90;;;;;;4165920;28;20136;-89
2021/01/15 04:00:20;;;;;;;0.20;0.20;;;7.90;99.90;;;;;;4181772;28;20053;-89
2021/01/15 04:02:21;;;;;;;0.20;0.20;;;7.90;99.90;;;;;;4181529;28;20095;-88
2021/01/15 04:04:22;;;;;;;0.20;0.20;;;8.00;99.90;;;;;;4181451;28;20128;-89
2021/01/15 04:06:26;;;;;;;0.20;0.20;;;8.00;99.90;;;;;;4172155;28;20053;-91
2021/01/15 04:08:27;;;;;;;0.10;0.10;;;8.00;99.90;;;;;;4174889;28;20044;-90
2021/01/15 04:10:29;;;;;;;0.20;0.20;;;8.00;99.90;;;;;;4167660;28;20049;-89
2021/01/15 04:12:31;;;;;;;0.10;0.10;;;8.10;99.90;;;;;;4179901;28;20052;-90
2021/01/15 04:14:32;;;;;;;0.10;0.10;;;8.10;99.90;;;;;;4185450;28;20041;-91
2021/01/15 04:16:34;;;;;;;0.20;0.20;;;8.00;99.90;;;;;;4181960;28;24919;-88
2021/01/15 04:18:35;;;;;;;0.20;0.20;;;8.00;99.90;;;;;;4165370;28;20065;-88
2021/01/15 04:20:37;;;;;;;0.10;0.10;;;8.00;99.90;;;;;;4187668;28;20053;-89
2021/01/15 04:22:40;;;;;;;0.20;0.20;;;8.00;99.90;;;;;;4181673;28;20048;-88
2021/01/15 04:24:41;;;;;;;0.10;0.10;;;8.00;99.90;;;;;;4181949;28;20760;-89
2021/01/15 04:26:42;;;;;;;0.20;0.20;;;8.10;99.70;;;;;;4177192;28;20047;-88
2021/01/15 04:28:44;;;;;;;0.10;0.10;;;8.00;99.60;;;;;;4181099;28;20123;-88
2021/01/15 04:30:45;;;;;;;0.10;0.10;;;8.00;99.20;;;;;;4177504;28;20048;-88
2021/01/15 04:32:47;;;;;;;0.15;0.15;;;8.00;99.50;;;;;;4193623;28;20440;-91
2021/01/15 04:34:49;;;;;;;0.10;0.10;;;8.00;99.20;;;;;;4169713;28;20080;-88
2021/01/15 04:36:50;;;;;;;0.20;0.20;;;8.00;98.90;;;;;;4181860;28;20053;-89
2021/01/15 04:38:51;;;;;;;0.20;0.20;;;8.00;98.90;;;;;;4171943;28;20053;-87
2021/01/15 04:40:58;;;;;;;0.20;0.20;;;8.00;98.90;;;;;;4197848;28;20052;-88
2021/01/15 04:43:01;;;;;;;0.10;0.10;;;7.90;99.00;;;;;;4183712;28;20053;-88
2021/01/15 04:45:03;;;;;;;0.10;0.10;;;7.90;99.40;;;;;;4176200;28;20143;-88
2021/01/15 04:47:05;;;;;;;2.13;0.30;;;7.80;99.50;;;;;;4197517;28;20135;-88
2021/01/15 04:49:08;;;;;;;0.43;0.15;;;7.80;99.30;;;;;;4179760;28;20053;-88
2021/01/15 04:51:10;;;;;;;0.20;0.20;;;7.80;99.60;;;;;;4186294;28;20041;-88
2021/01/15 04:53:12;;;;;;;0.20;0.20;;;7.80;98.40;;;;;;4172446;28;20055;-88
2021/01/15 04:55:18;;;;;;;0.10;0.10;;;7.70;98.60;;;;;;4181145;28;20055;-89
2021/01/15 04:57:20;;;;;;;0.10;0.10;;;7.70;98.90;;;;;;4167569;28;20049;-88
2021/01/15 04:59:21;;;;;;;0.13;0.13;;;7.60;98.20;;;;;;4173447;28;20056;-88
2021/01/15 05:01:23;;;;;;;0.55;0.55;;;7.60;98.30;;;;;;4181139;28;20137;-88
2021/01/15 05:03:25;;;;;;;0.10;0.10;;;7.50;98.20;;;;;;4195216;28;20048;-88
2021/01/15 05:05:27;;;;;;;0.10;0.10;;;7.40;98.20;;;;;;4195945;28;20563;-89
2021/01/15 05:07:30;;;;;;;0.20;0.20;;;7.40;98.50;;;;;;4198144;28;20048;-87
2021/01/15 05:09:38;;;;;;;0.10;0.10;;;7.30;98.60;;;;;;4198045;28;20139;-88
2021/01/15 05:11:40;;;;;;;0.10;0.10;;;7.30;98.10;;;;;;4214479;28;20067;-90
2021/01/15 05:13:41;;;;;;;0.20;0.20;;;7.30;98.10;;;;;;4198203;28;20474;-88
2021/01/15 05:15:44;;;;;;;0.20;0.20;;;7.30;98.70;;;;;;4181706;28;20072;-88
2021/01/15 05:17:45;;;;;;;0.10;0.10;;;7.20;98.80;;;;;;4193682;28;20478;-87
2021/01/15 05:19:47;;;;;;;0.10;0.10;;;7.20;98.90;;;;;;4184978;28;20553;-88
2021/01/15 05:21:50;;;;;;;0.20;0.20;;;7.20;98.70;;;;;;4185098;28;20057;-88
2021/01/15 05:23:52;;;;;;;0.20;0.20;;;7.20;99.00;;;;;;4172938;28;20520;-88
2021/01/15 05:25:54;;;;;;;0.20;0.20;;;7.10;99.00;;;;;;4168818;28;20048;-88
2021/01/15 05:27:55;;;;;;;0.20;0.20;;;7.10;99.10;;;;;;4181217;28;20056;-88
2021/01/15 05:30:24;;;;;;;0.10;0.10;;;7.00;99.00;;;;;;4185798;28;20152;-88
2021/01/15 05:32:31;;;;;;;0.10;0.10;;;7.00;99.80;;;;;;4212256;28;20058;-88
2021/01/15 05:34:32;;;;;;;0.20;0.20;;;6.90;99.60;;;;;;4164976;28;20053;-88
2021/01/15 05:36:35;;;;;;;0.20;0.20;;;6.90;99.70;;;;;;4180782;28;20061;-88
2021/01/15 05:38:36;;;;;;;0.20;0.20;;;6.90;99.70;;;;;;4180408;28;20048;-88
2021/01/15 05:40:42;;;;;;;0.20;0.20;;;6.80;99.90;;;;;;4197266;28;20479;-87
2021/01/15 05:42:46;;;;;;;;;;;6.80;99.90;;;;;;4185505;28;20051;-88
2021/01/15 05:44:52;;;;;;;0.13;0.13;;;6.80;99.90;;;;;;4185782;28;19920;-90
2021/01/15 05:46:55;;;;;;;0.10;0.10;;;6.80;99.90;;;;;;4169426;28;20118;-89
2021/01/15 05:49:06;;;;;;;0.20;0.20;;;6.80;99.90;;;;;;4177985;28;20429;-89
2021/01/15 05:51:31;;;;;;;0.20;0.20;;;6.80;99.90;;;;;;4176461;28;20116;-91
2021/01/15 05:53:42;;;;;;;0.20;0.20;;;6.80;99.90;;;;;;4182556;28;20052;-88
2021/01/15 05:55:57;;;;;;;0.10;0.10;;;6.70;99.90;;;;;;4167732;28;20284;-88
2021/01/15 05:58:08;;;;;;;0.20;0.20;;;6.60;99.90;;;;;;4183113;28;20052;-88
2021/01/15 06:00:10;;;;;;;0.10;0.10;;;6.70;99.90;;;;;;4189344;28;20041;-88
2021/01/15 06:02:12;;;;;;;0.38;0.38;;;6.70;99.90;;;;;;4176348;28;20080;-88
2021/01/15 06:04:15;;;;;;;0.10;0.10;;;6.70;99.90;;;;;;4196789;28;20519;-90
2021/01/15 06:06:16;;;;;;;0.10;0.10;;;6.60;99.90;;;;;;4179971;28;20053;-88
2021/01/15 06:08:18;;;;;;;0.20;0.20;;;6.60;99.90;;;;;;4175102;28;20080;-89
2021/01/15 06:10:19;;;;;;;0.10;0.10;;;6.60;99.90;;;;;;4196580;28;20044;-88
2021/01/15 06:12:25;;;;;;;0.10;0.10;;;6.50;99.90;;;;;;4178993;28;20553;-88
2021/01/15 06:14:26;;;;;;;0.20;0.20;;;6.50;99.90;;;;;;4171567;28;20059;-88
2021/01/15 06:16:28;;;;;;;0.20;0.20;;;6.50;99.90;;;;;;4173963;28;20167;-87
2021/01/15 06:18:30;;;;;;;0.10;0.10;;;6.50;99.90;;;;;;4194865;28;20421;-89
2021/01/15 06:20:32;;;;;;;0.10;0.10;;;6.60;99.90;;;;;;4198096;28;20051;-89
2021/01/15 06:22:47;;;;;;;1.10;1.00;;;6.50;99.90;;;;;;4195961;28;20048;-88
2021/01/15 06:24:48;;;;;;;0.10;0.10;;;6.50;99.90;;;;;;4182544;28;20059;-89
2021/01/15 06:27:02;;;;;;;0.10;0.10;;;6.50;99.90;;;;;;4178983;28;20045;-89
2021/01/15 06:29:10;;;;;;;0.10;0.10;;;6.50;99.90;;;;;;4180665;28;20063;-89
2021/01/15 06:31:12;;;;;;;0.45;0.10;;;6.50;99.90;;;;;;4180319;28;20139;-88
2021/01/15 06:33:14;;;;;;;0.20;0.20;;;6.50;99.90;;;;;;4179701;28;20127;-89
2021/01/15 06:35:29;;;;;;;0.10;0.10;;;6.50;99.90;;;;;;4195592;28;20048;-86
2021/01/15 06:37:30;;;;;;;0.20;0.20;;;6.50;99.90;;;;;;4166130;28;20541;-89
2021/01/15 06:39:33;;;;;;;0.40;0.40;;;6.60;99.90;;;;;;4183758;28;20053;-88
2021/01/15 06:41:43;;;;;;;0.20;0.20;;;6.60;99.90;;;;;;4235048;28;20048;-88
2021/01/15 06:43:45;;;;;;;0.10;0.10;;;6.50;99.90;;;;;;4200487;28;20076;-92
2021/01/15 06:45:48;;;;;;;0.10;0.10;;;6.50;99.90;;;;;;4199967;28;20102;-89
2021/01/15 06:47:50;;;;;;;0.40;0.32;;;6.40;99.90;;;;;;4199337;28;20045;-89
2021/01/15 06:49:54;;;;;;;0.20;0.20;;;6.40;99.90;;;;;;4182659;28;20394;-88
2021/01/15 06:51:57;;;;;;;0.20;0.20;;;6.40;99.90;;;;;;4183776;28;20075;-88
2021/01/15 06:53:59;;;;;;;0.22;0.20;;;6.30;99.90;;;;;;4182178;28;20452;-80
2021/01/15 06:56:04;;;;;;;0.10;0.10;;;6.20;99.90;;;;;;4194592;28;20044;-81
2021/01/15 06:58:06;;;;;;;0.17;0.17;;;6.10;99.90;;;;;;4233608;28;20518;-80
2021/01/15 07:00:07;;;;;;;0.10;0.10;;;6.10;99.90;;;;;;4191647;28;20040;-78
2021/01/15 07:02:12;;;;;;;0.10;0.10;;;6.10;99.90;;;;;;4196353;28;20051;-81
2021/01/15 07:04:27;;;;;;;0.20;0.20;;;6.10;99.90;;;;;;4215068;28;20059;-81
2021/01/15 07:06:32;;;;;;;0.10;0.10;;;6.10;99.90;;;;;;4169289;28;20141;-81
2021/01/15 07:08:33;;;;;;;0.17;0.17;;;6.10;99.90;;;;;;4191909;28;20092;-81
2021/01/15 07:10:35;;;;;;;0.43;0.20;;;6.10;99.90;;;;;;4182664;28;20516;-81
2021/01/15 07:12:40;;;;;;;0.20;0.20;;;6.10;99.90;;;;;;4196931;28;20049;-81
2021/01/15 07:14:47;;;;;;;0.10;0.10;;;6.10;99.90;;;;;;4203265;28;20047;-79
2021/01/15 07:16:51;;;;;;;0.13;0.13;;;6.10;99.90;;;;;;4217541;28;20056;-81
2021/01/15 07:18:52;;;;;;;0.28;0.28;;;6.10;99.90;;;;;;4185379;28;20047;-81
2021/01/15 07:20:56;;;;;;;0.10;0.10;;;6.00;99.90;;;;;;4186425;28;20409;-82
2021/01/15 07:23:00;;;;;;;0.20;0.20;;;5.90;99.90;;;;;;4218095;28;20135;-81
2021/01/15 07:25:04;;;;;;;0.20;0.20;;;5.80;99.90;;;;;;4212883;28;20044;-81
2021/01/15 07:27:07;;;;;;;0.20;0.17;;;5.80;99.90;;;;;;4204272;28;20265;-81
2021/01/15 07:29:09;;;;;;;0.25;0.25;;;5.70;99.90;;;;;;4220294;28;20047;-84
2021/01/15 07:31:22;;;;;;;0.10;0.10;;;5.60;99.90;;;;;;4198636;28;20066;-81
2021/01/15 07:33:23;;;;;;;0.10;0.10;;;5.50;99.90;;;;;;4191060;28;20045;-81
2021/01/15 07:35:26;;;;;;;0.10;0.10;;;5.60;99.90;;;;;;4201401;28;20045;-81
2021/01/15 07:37:29;;;;;;;0.10;0.10;;;5.60;99.90;;;;;;4212638;28;20138;-81
2021/01/15 07:39:30;;;;;;;0.10;0.10;;;5.50;99.90;;;;;;4202241;28;20487;-81
2021/01/15 07:41:39;;;;;;;0.10;0.10;;;5.50;99.90;;;;;;4199171;28;20044;-82
2021/01/15 07:43:40;;;;;;;0.20;0.20;;;5.50;99.90;;;;;;4208750;28;20115;-81
2021/01/15 07:45:42;;;;;;;0.10;0.10;;;5.60;99.90;;;;;;4199692;28;20053;-81
2021/01/15 07:47:46;;;;;;;0.20;0.20;;;5.60;99.90;;;;;;4209057;28;20519;-82
2021/01/15 07:49:49;;;;;;;0.10;0.10;;;5.60;99.90;;;;;;4212499;28;20044;-81
2021/01/15 07:52:20;;;;;;;0.10;0.10;;;5.60;99.90;;;;;;4232231;28;20127;-82
2021/01/15 07:55:00;;;;;;;0.10;0.10;;;5.60;99.90;;;;;;4213683;28;20047;-82
2021/01/15 07:57:14;;;;;;;0.20;0.20;;;5.60;99.90;;;;;;4231183;28;20075;-80
2021/01/15 07:59:28;;;;;;;0.20;0.20;;;5.60;99.90;;;;;;4230999;28;20051;-81
2021/01/15 08:01:29;;;;;;;0.10;0.10;;;5.60;99.90;;;;;;4198464;28;20040;-81
2021/01/15 08:03:33;;;;;;;0.13;0.13;;;5.50;99.90;;;;;;4230391;28;20051;-82
2021/01/15 08:05:35;;;;;;;0.10;0.10;;;5.60;99.90;;;;;;4210787;28;20047;-84
2021/01/15 08:07:36;;;;;;;0.10;0.10;;;5.50;99.90;;;;;;4200024;28;20519;-84
2021/01/15 08:09:41;;;;;;;0.20;0.20;;;5.40;99.90;;;;;;4214041;28;20056;-84
2021/01/15 08:11:42;;;;;;;0.20;0.20;;;5.50;99.90;;;;;;4210023;28;20520;-84
2021/01/15 08:13:44;;;;;;;0.10;0.10;;;5.40;99.90;;;;;;4199969;28;20485;-84
2021/01/15 08:15:46;;;;;;;0.20;0.20;;;5.50;99.90;;;;;;4193603;28;20441;-81
2021/01/15 08:17:47;;;;;;;0.10;0.10;;;5.50;99.90;;;;;;4191899;28;20048;-83
2021/01/15 08:19:48;;;;;;;0.40;0.40;;;5.40;99.90;;;;;;4199502;28;20040;-85
2021/01/15 08:21:50;;;;;;;0.10;0.10;;;5.40;99.90;;;;;;4197365;28;20063;-82
2021/01/15 08:23:51;;;;;;;0.20;0.20;;;5.40;99.90;;;;;;4193538;28;20050;-82
2021/01/15 08:26:13;;;;;;;0.20;0.20;;;5.40;99.90;;;;;;4209814;28;20045;-81
2021/01/15 08:28:14;;;;;;;0.22;0.22;;;5.30;99.90;;;;;;4213961;28;20052;-80
2021/01/15 08:30:16;;;;;;;0.10;0.10;;;5.40;99.90;;;;;;4227004;28;20062;-81
2021/01/15 08:32:17;;;;;;;0.10;0.10;;;5.40;99.90;;;;;;4226103;28;20048;-83
2021/01/15 08:34:21;;;;;;;0.10;0.10;;;5.40;99.90;;;;;;4213341;28;20051;-82
2021/01/15 08:36:23;;;;;;;0.20;0.20;;;5.30;99.90;;;;;;4208829;28;20058;-83
2021/01/15 08:38:37;;;;;;;0.20;0.20;;;5.30;99.90;;;;;;4208853;28;20044;-83
2021/01/15 08:40:41;;;;;;;0.10;0.10;;;5.30;99.90;;;;;;4184759;28;20055;-84
2021/01/15 08:42:43;;;;;;;0.10;0.10;;;5.20;99.90;;;;;;4205290;28;20057;-89
2021/01/15 08:44:47;;;;;;;0.52;0.52;;;5.20;99.90;;;;;;4192892;28;20044;-86
2021/01/15 08:46:49;;;;;;;1.10;0.40;;;5.20;99.90;;;;;;4213017;28;20505;-86
2021/01/15 08:48:51;;;;;;;0.15;0.15;;;5.10;99.90;;;;;;4180480;28;20517;-81
2021/01/15 08:50:53;;;;;;;0.20;0.20;;;5.10;99.90;;;;;;4220107;28;20046;-86
2021/01/15 08:52:54;;;;;;;0.17;0.17;;;5.10;99.90;;;;;;4185545;28;20048;-84
2021/01/15 08:54:56;;;;;;;0.15;0.15;;;5.00;99.90;;;;;;4167010;28;20045;-82
2021/01/15 08:56:59;;;;;;;0.20;0.20;;;4.90;99.90;;;;;;4201853;28;20147;-83
2021/01/15 08:59:00;;;;;;;0.20;0.20;;;4.70;99.90;;;;;;4200147;28;20128;-83
2021/01/15 09:01:01;;;;;;;0.32;0.25;;;4.70;99.90;;;;;;4197769;28;20535;-82
2021/01/15 09:03:06;;;;;;;0.20;0.20;;;4.80;99.90;;;;;;4194395;28;20072;-84
2021/01/15 09:05:15;;;;;;;0.20;0.20;;;4.70;99.90;;;;;;4182345;28;20045;-83
2021/01/15 09:07:17;;;;;;;2.95;0.60;;;4.70;99.90;;;;;;4212784;28;20052;-83
2021/01/15 09:09:20;;;;;;;0.10;0.10;;;4.60;99.90;;;;;;4174894;28;20394;-83
2021/01/15 09:11:32;;;;;;;0.10;0.10;;;4.60;99.90;;;;;;4175007;28;20407;-83
2021/01/15 09:13:33;;;;;;;0.20;0.20;;;4.50;99.90;;;;;;4194702;28;20147;-83
2021/01/15 09:15:34;;;;;;;0.10;0.10;;;4.60;99.90;;;;;;4192235;28;20384;-83
2021/01/15 09:17:36;;;;;;;0.10;0.10;;;4.50;99.90;;;;;;4195755;28;20115;-82
2021/01/15 09:19:38;;;;;;;0.10;0.10;;;4.50;99.90;;;;;;4195023;28;20591;-82
2021/01/15 09:21:49;;;;;;;0.10;0.10;;;4.50;99.90;;;;;;4192357;28;20053;-83
2021/01/15 09:23:51;;;;;;;0.20;0.20;;;4.40;99.90;;;;;;4205004;28;20500;-83
2021/01/15 09:25:52;;;;;;;0.20;0.20;;;4.40;99.90;;;;;;4181646;28;20055;-83
2021/01/15 09:27:53;;;;;;;0.10;0.10;;;4.40;99.90;;;;;;4200172;28;20050;-83
2021/01/15 09:29:54;;;;;;;0.10;0.10;;;4.30;99.90;;;;;;4201350;28;20095;-83
2021/01/15 09:31:56;;;;;;;0.20;0.15;;;4.30;99.90;;;;;;4182194;28;20047;-83
2021/01/15 09:33:58;;;;;;;0.20;0.20;;;4.30;99.90;;;;;;4182632;28;20131;-83
2021/01/15 09:35:59;;;;;;;0.52;0.30;;;4.20;99.90;;;;;;4201311;28;20044;-83
2021/01/15 09:38:00;;;;;;;0.10;0.10;;;4.20;99.90;;;;;;4199228;28;20123;-83
2021/01/15 09:40:01;;;;;;;0.13;0.13;;;4.20;99.90;;;;;;4198473;28;20044;-83
2021/01/15 09:42:03;;;;;;;0.20;0.20;;;4.20;99.90;;;;;;4219499;28;20059;-84
2021/01/15 09:44:04;;;;;;;0.50;0.20;;;4.10;99.90;;;;;;4166349;28;20053;-83
2021/01/15 09:46:05;;;;;;;0.20;0.20;;;4.00;99.90;;;;;;4211306;28;20043;-82
2021/01/15 09:48:08;;;;;;;0.20;0.20;;;4.00;99.90;;;;;;4206339;28;20040;-83
2021/01/15 09:50:10;;;;;;;1.17;0.30;;;4.10;99.90;;;;;;4207470;28;20054;-82
2021/01/15 09:52:11;;;;;;;0.20;0.20;;;4.00;99.90;;;;;;4197206;28;20128;-83
2021/01/15 09:54:12;;;;;;;0.30;0.30;;;4.00;99.90;;;;;;4202466;28;20050;-83
2021/01/15 09:56:30;;;;;;;0.20;0.20;;;4.10;99.90;;;;;;4201777;28;20046;-84
2021/01/15 09:58:31;;;;;;;5.45;0.70;;;4.00;99.90;;;;;;4197875;28;20048;-80
2021/01/15 10:00:32;;;;;;;0.10;0.10;;;4.00;99.90;;;;;;4209183;28;20551;-81
2021/01/15 10:02:33;;;;;;;0.17;0.17;;;4.10;99.90;;;;;;4207741;28;20048;-81
2021/01/15 10:04:36;;;;;;;0.10;0.10;;;4.00;99.90;;;;;;4197866;28;20098;-83
2021/01/15 10:06:38;;;;;;;0.20;0.20;;;4.00;99.90;;;;;;4201759;28;20050;-82
2021/01/15 10:08:39;;;;;;;0.30;0.30;;;4.00;99.90;;;;;;4201004;28;20045;-82
2021/01/15 10:10:40;;;;;;;0.10;0.10;;;4.10;99.90;;;;;;4196415;28;20381;-82
2021/01/15 10:12:45;;;;;;;1.38;0.77;;;4.00;99.90;;;;;;4184933;28;20123;-82
2021/01/15 10:14:46;;;;;;;0.30;0.30;;;4.00;99.90;;;;;;4204381;28;20088;-81
2021/01/15 10:16:49;;;;;;;0.10;0.10;;;4.00;99.90;;;;;;4201474;28;20123;-81
2021/01/15 10:18:51;;;;;;;0.20;0.20;;;4.00;99.90;;;;;;4204276;28;20398;-82
2021/01/15 10:20:52;;;;;;;0.20;0.20;;;4.10;99.90;;;;;;4204202;28;20041;-81
2021/01/15 10:22:54;;;;;;;0.10;0.10;;;4.10;99.90;;;;;;4202977;28;20140;-83
2021/01/15 10:24:55;;;;;;;0.20;0.20;;;4.00;99.90;;;;;;4185495;28;20071;-81
2021/01/15 10:26:57;;;;;;;0.20;0.20;;;4.10;99.90;;;;;;4204139;28;20055;-80
2021/01/15 10:29:03;;;;;;;0.20;0.20;;;4.10;99.90;;;;;;4184893;28;20072;-80
2021/01/15 10:31:04;;;;;;;0.10;0.10;;;4.10;99.90;;;;;;4199268;28;20047;-81
2021/01/15 10:33:06;;;;;;;0.20;0.20;;;4.00;99.90;;;;;;4204729;28;20044;-81
2021/01/15 10:35:07;;;;;;;0.10;0.10;;;4.20;99.90;;;;;;4202508;28;20036;-81
2021/01/15 10:37:09;;;;;;;0.17;0.17;;;4.10;99.90;;;;;;4200313;28;20495;-81
2021/01/15 10:39:10;;;;;;;0.15;0.15;;;4.10;99.90;;;;;;4208218;28;20400;-81
2021/01/15 10:41:12;;;;;;;1.17;0.32;;;4.00;99.90;;;;;;4179041;28;20128;-81
2021/01/15 10:43:13;;;;;;;0.40;0.40;;;4.00;99.90;;;;;;4214449;28;20052;-81
2021/01/15 10:45:14;;;;;;;0.10;0.10;;;4.00;99.90;;;;;;4210396;28;20043;-81
2021/01/15 10:47:16;;;;;;;0.35;0.32;;;4.00;99.90;;;;;;4213027;28;20048;-81
2021/01/15 10:49:18;;;;;;;1.05;0.50;;;4.00;99.90;;;;;;4199398;28;20056;-80
2021/01/15 10:51:19;;;;;;;0.20;0.20;;;3.90;99.90;;;;;;4203686;28;20044;-81
2021/01/15 10:53:21;;;;;;;0.68;0.28;;;4.00;99.90;;;;;;4205217;28;20447;-81